createdAt,value
2016-08-12T00:00:06.809Z,16.1
2016-08-12T00:00:16.814Z,15.8
2016-08-12T00:00:26.804Z,15.9
2016-08-12T00:00:36.818Z,16
2016-08-12T00:00:46.817Z,16
2016-08-12T00:00:56.815Z,16
2016-08-12T00:01:06.819Z,16.2
2016-08-12T00:01:16.822Z,15.8
2016-08-12T00:01:26.824Z,16
2016-08-12T00:01:36.828Z,16.2
2016-08-12T00:01:46.837Z,16.4
2016-08-12T00:01:56.838Z,15.9
2016-08-12T00:02:06.841Z,16
2016-08-12T00:02:16.115Z,15.8
2016-08-12T00:02:26.846Z,16.6
2016-08-12T00:02:56.856Z,16.6
2016-08-12T00:03:06.860Z,16.6
2016-08-12T00:03:16.862Z,16
2016-08-12T00:03:26.865Z,16
2016-08-12T00:03:36.871Z,15.8
2016-08-12T00:03:46.870Z,16.1
2016-08-12T00:03:56.874Z,16.6
2016-08-12T00:04:06.881Z,16.1
2016-08-12T00:04:16.879Z,16.2
2016-08-12T00:04:26.886Z,15.8
2016-08-12T00:04:36.890Z,15.8
2016-08-12T00:04:46.892Z,15.9
2016-08-12T00:04:56.893Z,15.9
2016-08-12T00:05:06.913Z,16.2
2016-08-12T00:05:16.906Z,16.1
2016-08-12T00:05:26.917Z,16
2016-08-12T00:05:36.910Z,15.5
2016-08-12T00:05:46.927Z,15.8
2016-08-12T00:05:56.911Z,15.8
2016-08-12T00:06:06.915Z,16.1
2016-08-12T00:06:16.926Z,15.9
2016-08-12T00:06:26.928Z,16.2
2016-08-12T00:06:36.937Z,16.4
2016-08-12T00:06:46.929Z,15.9
2016-08-12T00:06:56.200Z,15.6
2016-08-12T00:07:06.946Z,15.7
2016-08-12T00:07:16.203Z,15.6
2016-08-12T00:07:26.941Z,15.6
2016-08-12T00:07:36.956Z,15.7
2016-08-12T00:07:46.973Z,16.2
2016-08-12T00:07:56.959Z,15.8
2016-08-12T00:08:06.958Z,16
2016-08-12T00:08:16.974Z,15.7
2016-08-12T00:08:26.963Z,15.7
2016-08-12T00:08:36.236Z,16
2016-08-12T00:08:46.978Z,16
2016-08-12T00:08:56.242Z,15.7
2016-08-12T00:09:06.980Z,16
2016-08-12T00:09:16.986Z,15.5
2016-08-12T00:09:26.991Z,16
2016-08-12T00:09:36.991Z,15.7
2016-08-12T00:09:46.990Z,15.7
2016-08-12T00:09:56.255Z,15.7
2016-08-12T00:10:07.047Z,15.8
2016-08-12T00:10:17.008Z,15.8
2016-08-12T00:10:27.004Z,15.2
2016-08-12T00:10:36.284Z,15.6
2016-08-12T00:10:46.281Z,15.6
2016-08-12T00:10:57.009Z,16.1
2016-08-12T00:11:07.015Z,15.4
2016-08-12T00:11:17.020Z,15.9
2016-08-12T00:11:27.022Z,15.4
2016-08-12T00:11:37.021Z,15.5
2016-08-12T00:11:47.031Z,16
2016-08-12T00:11:57.031Z,15.7
2016-08-12T00:12:07.038Z,16.2
2016-08-12T00:12:17.046Z,16
2016-08-12T00:12:26.311Z,15.7
2016-08-12T00:12:37.049Z,15.6
2016-08-12T00:12:47.051Z,15.2
2016-08-12T00:12:57.048Z,15.4
2016-08-12T00:13:07.058Z,15.9
2016-08-12T00:13:17.057Z,15.4
2016-08-12T00:13:27.061Z,16
2016-08-12T00:13:37.065Z,15.5
2016-08-12T00:13:47.073Z,16.2
2016-08-12T00:13:57.075Z,15.8
2016-08-12T00:14:06.343Z,15.8
2016-08-12T00:14:17.077Z,15.7
2016-08-12T00:14:26.353Z,15.7
2016-08-12T00:14:37.087Z,15.6
2016-08-12T00:14:46.359Z,15.8
2016-08-12T00:14:57.099Z,16.3
2016-08-12T00:15:07.090Z,15.7
2016-08-12T00:15:17.098Z,15.7
2016-08-12T00:15:27.106Z,16.2
2016-08-12T00:15:37.125Z,16.2
2016-08-12T00:15:47.118Z,15.8
2016-08-12T00:15:57.119Z,16
2016-08-12T00:16:07.117Z,16.2
2016-08-12T00:16:17.123Z,15.8
2016-08-12T00:16:27.127Z,15.9
2016-08-12T00:16:37.126Z,15.8
2016-08-12T00:16:47.132Z,16.1
2016-08-12T00:16:57.134Z,16.1
2016-08-12T00:17:07.139Z,16.4
2016-08-12T00:17:17.140Z,16.1
2016-08-12T00:17:27.138Z,15.8
2016-08-12T00:17:36.421Z,15.7
2016-08-12T00:18:07.149Z,16
2016-08-12T00:18:17.157Z,16.4
2016-08-12T00:18:27.161Z,16.6
2016-08-12T00:18:37.160Z,16.2
2016-08-12T00:18:47.170Z,16.1
2016-08-12T00:18:57.168Z,16.2
2016-08-12T00:19:07.175Z,16.7
2016-08-12T00:19:17.179Z,16.7
2016-08-12T00:19:27.184Z,16.6
2016-08-12T00:19:37.181Z,16.2
2016-08-12T00:19:57.190Z,16.3
2016-08-12T00:20:07.193Z,16.5
2016-08-12T00:20:17.191Z,16.3
2016-08-12T00:20:27.200Z,16.3
2016-08-12T00:20:37.204Z,16.3
2016-08-12T00:20:47.205Z,16.1
2016-08-12T00:20:56.478Z,16.1
2016-08-12T00:21:07.212Z,16.2
2016-08-12T00:21:17.223Z,16.3
2016-08-12T00:21:27.219Z,16.2
2016-08-12T00:21:36.498Z,16.4
2016-08-12T00:21:47.228Z,16.6
2016-08-12T00:21:57.228Z,16.4
2016-08-12T00:22:06.505Z,16.6
2016-08-12T00:22:17.234Z,17.2
2016-08-12T00:22:27.239Z,16.4
2016-08-12T00:22:37.243Z,16.1
2016-08-12T00:22:47.249Z,16.8
2016-08-12T00:22:55.795Z,17.3
2016-08-12T00:23:07.250Z,17.1
2016-08-12T00:23:17.259Z,16.8
2016-08-12T00:23:27.259Z,16.8
2016-08-12T00:23:37.263Z,16.8
2016-08-12T00:23:47.262Z,16.8
2016-08-12T00:23:57.270Z,17
2016-08-12T00:24:06.549Z,16.6
2016-08-12T00:24:17.276Z,16.7
2016-08-12T00:24:26.537Z,17
2016-08-12T00:24:37.276Z,17.2
2016-08-12T00:24:47.282Z,17
2016-08-12T00:24:57.299Z,17
2016-08-12T00:25:07.291Z,16.6
2016-08-12T00:25:17.292Z,17.2
2016-08-12T00:25:27.302Z,17
2016-08-12T00:25:36.569Z,16.5
2016-08-12T00:25:47.308Z,16.7
2016-08-12T00:25:57.318Z,17
2016-08-12T00:26:07.311Z,17
2016-08-12T00:26:17.321Z,17
2016-08-12T00:26:27.318Z,17.1
2016-08-12T00:26:37.322Z,17.1
2016-08-12T00:26:47.318Z,17.3
2016-08-12T00:26:57.327Z,17.1
2016-08-12T00:27:07.331Z,16.9
2016-08-12T00:27:17.342Z,17.7
2016-08-12T00:27:26.614Z,17.4
2016-08-12T00:27:36.608Z,17.2
2016-08-12T00:27:47.341Z,16.9
2016-08-12T00:27:57.346Z,17.1
2016-08-12T00:28:07.348Z,17.2
2016-08-12T00:28:17.359Z,16.9
2016-08-12T00:28:27.359Z,17.1
2016-08-12T00:28:37.358Z,17.2
2016-08-12T00:28:47.359Z,17
2016-08-12T00:28:56.647Z,16.8
2016-08-12T00:29:05.910Z,16.8
2016-08-12T00:29:16.643Z,16.9
2016-08-12T00:29:27.376Z,16.8
2016-08-12T00:29:37.378Z,17
2016-08-12T00:29:47.384Z,17
2016-08-12T00:29:57.383Z,17
2016-08-12T00:30:07.390Z,16.7
2016-08-12T00:30:17.390Z,16.9
2016-08-12T00:30:27.396Z,16.7
2016-08-12T00:30:37.401Z,16.8
2016-08-12T00:30:46.669Z,16.7
2016-08-12T00:30:57.402Z,17.4
2016-08-12T00:31:07.413Z,17
2016-08-12T00:31:17.418Z,16.7
2016-08-12T00:31:27.422Z,16.8
2016-08-12T00:31:37.422Z,16.7
2016-08-12T00:31:46.690Z,17.1
2016-08-12T00:31:56.693Z,16.8
2016-08-12T00:32:07.429Z,16.7
2016-08-12T00:32:17.434Z,16.9
2016-08-12T00:32:27.432Z,16.9
2016-08-12T00:32:37.438Z,16.9
2016-08-12T00:32:47.443Z,16.9
2016-08-12T00:33:07.450Z,16.9
2016-08-12T00:33:17.447Z,17
2016-08-12T00:33:27.454Z,17.1
2016-08-12T00:33:37.460Z,17.5
2016-08-12T00:33:46.739Z,16.9
2016-08-12T00:33:56.732Z,17
2016-08-12T00:34:07.471Z,17.2
2016-08-12T00:34:17.472Z,17
2016-08-12T00:34:27.473Z,17.2
2016-08-12T00:34:37.480Z,16.8
2016-08-12T00:34:47.480Z,17.5
2016-08-12T00:34:57.484Z,17.3
2016-08-12T00:35:07.483Z,17.2
2016-08-12T00:35:16.756Z,17.2
2016-08-12T00:35:27.493Z,17.4
2016-08-12T00:35:37.507Z,17.7
2016-08-12T00:35:47.501Z,17.2
2016-08-12T00:35:57.507Z,17
2016-08-12T00:36:07.508Z,17.3
2016-08-12T00:36:17.511Z,17.2
2016-08-12T00:36:26.775Z,17
2016-08-12T00:36:37.516Z,17.5
2016-08-12T00:36:46.794Z,17.1
2016-08-12T00:36:57.525Z,17.4
2016-08-12T00:37:07.531Z,17.4
2016-08-12T00:37:17.534Z,17.2
2016-08-12T00:37:27.535Z,17.2
2016-08-12T00:37:36.805Z,17.3
2016-08-12T00:37:47.536Z,17.1
2016-08-12T00:37:57.547Z,17.7
2016-08-12T00:38:07.549Z,17.3
2016-08-12T00:38:17.558Z,17.1
2016-08-12T00:38:27.552Z,17.2
2016-08-12T00:38:37.554Z,17.5
2016-08-12T00:38:47.561Z,17
2016-08-12T00:38:57.569Z,17.5
2016-08-12T00:39:07.568Z,17.2
2016-08-12T00:39:16.101Z,17.1
2016-08-12T00:39:27.575Z,17.2
2016-08-12T00:39:37.576Z,17.3
2016-08-12T00:39:47.579Z,17.5
2016-08-12T00:39:57.587Z,17.2
2016-08-12T00:40:06.850Z,17.2
2016-08-12T00:40:17.594Z,17.2
2016-08-12T00:40:26.858Z,17.2
2016-08-12T00:40:37.594Z,17.2
2016-08-12T00:40:47.598Z,17.1
2016-08-12T00:40:57.600Z,16.9
2016-08-12T00:41:06.880Z,17.2
2016-08-12T00:41:17.610Z,17.6
2016-08-12T00:41:27.616Z,17.6
2016-08-12T00:41:37.620Z,17.2
2016-08-12T00:41:47.618Z,17.4
2016-08-12T00:41:57.623Z,17.6
2016-08-12T00:42:07.624Z,17.7
2016-08-12T00:42:17.625Z,17.5
2016-08-12T00:42:27.636Z,17.3
2016-08-12T00:42:37.635Z,17.6
2016-08-12T00:42:46.917Z,17.5
2016-08-12T00:42:57.644Z,17.5
2016-08-12T00:43:07.644Z,17.7
2016-08-12T00:43:17.648Z,17.6
2016-08-12T00:43:27.648Z,17.5
2016-08-12T00:43:37.654Z,17.8
2016-08-12T00:43:47.657Z,18.2
2016-08-12T00:43:57.660Z,17.6
2016-08-12T00:44:07.661Z,17.4
2016-08-12T00:44:17.666Z,17.6
2016-08-12T00:44:27.675Z,17.8
2016-08-12T00:44:37.680Z,17.9
2016-08-12T00:44:47.676Z,17.7
2016-08-12T00:44:57.683Z,17.6
2016-08-12T00:45:07.706Z,17.4
2016-08-12T00:45:17.684Z,17.7
2016-08-12T00:45:27.697Z,17.9
2016-08-12T00:45:37.695Z,18
2016-08-12T00:45:47.699Z,18.4
2016-08-12T00:45:57.706Z,18.2
2016-08-12T00:46:07.699Z,18.4
2016-08-12T00:46:17.709Z,17.6
2016-08-12T00:46:27.712Z,18.2
2016-08-12T00:46:37.720Z,17.9
2016-08-12T00:46:47.718Z,18
2016-08-12T00:46:56.262Z,17.5
2016-08-12T00:47:07.724Z,18.1
2016-08-12T00:47:17.728Z,17.8
2016-08-12T00:47:27.727Z,17.8
2016-08-12T00:47:36.999Z,17.5
2016-08-12T00:47:47.734Z,17.8
2016-08-12T00:47:57.008Z,17.7
2016-08-12T00:48:17.746Z,17.8
2016-08-12T00:48:27.746Z,18.1
2016-08-12T00:48:37.751Z,17.7
2016-08-12T00:48:47.755Z,17.8
2016-08-12T00:48:57.760Z,18.3
2016-08-12T00:49:07.036Z,17.4
2016-08-12T00:49:17.769Z,18.2
2016-08-12T00:49:27.778Z,18.1
2016-08-12T00:49:37.782Z,18.2
2016-08-12T00:49:47.778Z,17.9
2016-08-12T00:49:57.789Z,17.9
2016-08-12T00:50:07.790Z,18.5
2016-08-12T00:50:17.784Z,17.9
2016-08-12T00:50:27.064Z,17.9
2016-08-12T00:50:37.796Z,18.3
2016-08-12T00:50:47.799Z,18.5
2016-08-12T00:50:57.797Z,18.1
2016-08-12T00:51:07.805Z,17.5
2016-08-12T00:51:17.805Z,17.7
2016-08-12T00:51:27.083Z,17.8
2016-08-12T00:51:37.813Z,18.1
2016-08-12T00:51:47.081Z,17.9
2016-08-12T00:51:57.819Z,17.8
2016-08-12T00:52:07.096Z,17.5
2016-08-12T00:52:17.827Z,18
2016-08-12T00:52:27.829Z,17.5
2016-08-12T00:52:37.829Z,18
2016-08-12T00:52:47.109Z,17.9
2016-08-12T00:52:57.848Z,17.6
2016-08-12T00:53:07.843Z,17.5
2016-08-12T00:53:17.844Z,17.7
2016-08-12T00:53:27.852Z,17.9
2016-08-12T00:53:37.868Z,18.1
2016-08-12T00:53:47.861Z,17.8
2016-08-12T00:53:57.861Z,17.7
2016-08-12T00:54:07.867Z,17.6
2016-08-12T00:54:17.864Z,17.8
2016-08-12T00:54:27.875Z,17.6
2016-08-12T00:54:37.148Z,17.6
2016-08-12T00:54:47.889Z,17.6
2016-08-12T00:54:57.880Z,17.8
2016-08-12T00:55:07.885Z,17.9
2016-08-12T00:55:17.884Z,17.5
2016-08-12T00:55:27.892Z,17.8
2016-08-12T00:55:37.890Z,17.8
2016-08-12T00:55:47.899Z,17.9
2016-08-12T00:55:57.901Z,17.9
2016-08-12T00:56:07.902Z,17.9
2016-08-12T00:56:17.905Z,18
2016-08-12T00:56:27.911Z,18.1
2016-08-12T00:56:37.181Z,18.4
2016-08-12T00:56:47.924Z,17.9
2016-08-12T00:56:57.936Z,18.1
2016-08-12T00:57:07.195Z,17.8
2016-08-12T00:57:17.930Z,18.5
2016-08-12T00:57:27.929Z,18.5
2016-08-12T00:57:37.943Z,18.3
2016-08-12T00:57:47.945Z,18.5
2016-08-12T00:57:57.945Z,18
2016-08-12T00:58:07.942Z,18
2016-08-12T00:58:17.945Z,17.9
2016-08-12T00:58:27.947Z,17.8
2016-08-12T00:58:37.955Z,18
2016-08-12T00:58:47.951Z,17.8
2016-08-12T00:58:57.961Z,17.8
2016-08-12T00:59:07.964Z,17.6
2016-08-12T00:59:17.961Z,17.5
2016-08-12T00:59:27.241Z,17.7
2016-08-12T00:59:37.972Z,17.5
2016-08-12T00:59:47.992Z,17.7
2016-08-12T00:59:57.975Z,17.5
2016-08-12T01:00:07.980Z,17.7
2016-08-12T01:00:17.990Z,17.7
2016-08-12T01:00:27.986Z,17.7
2016-08-12T01:00:37.993Z,17.8
2016-08-12T01:00:48.000Z,18.2
2016-08-12T01:00:57.995Z,18.4
2016-08-12T01:01:07.998Z,17.8
2016-08-12T01:01:18.010Z,18.2
2016-08-12T01:01:28.009Z,17.8
2016-08-12T01:01:38.016Z,17.7
2016-08-12T01:01:48.013Z,17.7
2016-08-12T01:01:58.013Z,17.9
2016-08-12T01:02:08.028Z,18.5
2016-08-12T01:02:18.038Z,18
2016-08-12T01:02:28.031Z,18.3
2016-08-12T01:02:38.054Z,17.8
2016-08-12T01:02:47.294Z,17.8
2016-08-12T01:02:57.313Z,17.8
2016-08-12T01:03:08.050Z,18
2016-08-12T01:03:28.047Z,18.3
2016-08-12T01:03:38.057Z,17.6
2016-08-12T01:03:48.059Z,17.7
2016-08-12T01:03:58.061Z,18.2
2016-08-12T01:04:08.058Z,17.6
2016-08-12T01:04:18.065Z,17.6
2016-08-12T01:04:27.337Z,18
2016-08-12T01:04:38.075Z,17.6
2016-08-12T01:04:48.074Z,18
2016-08-12T01:04:58.076Z,17.7
2016-08-12T01:05:08.081Z,17.5
2016-08-12T01:05:18.092Z,17.9
2016-08-12T01:05:28.092Z,18.2
2016-08-12T01:05:38.099Z,18.1
2016-08-12T01:05:48.101Z,18.1
2016-08-12T01:05:58.106Z,17.8
2016-08-12T01:06:07.409Z,18.4
2016-08-12T01:06:18.105Z,17.7
2016-08-12T01:06:28.112Z,17.4
2016-08-12T01:06:38.109Z,17.7
2016-08-12T01:06:48.113Z,18.1
2016-08-12T01:06:58.112Z,17.7
2016-08-12T01:07:08.119Z,17.4
2016-08-12T01:07:17.400Z,17.7
2016-08-12T01:07:28.128Z,17.5
2016-08-12T01:07:38.131Z,17.8
2016-08-12T01:07:48.133Z,17.3
2016-08-12T01:07:58.134Z,17.8
2016-08-12T01:08:08.137Z,17.6
2016-08-12T01:08:17.416Z,17.9
2016-08-12T01:08:28.150Z,17.8
2016-08-12T01:08:38.151Z,18.4
2016-08-12T01:08:48.156Z,17.7
2016-08-12T01:08:58.163Z,17.8
2016-08-12T01:09:08.170Z,17.7
2016-08-12T01:09:18.164Z,17.7
2016-08-12T01:09:27.437Z,18.1
2016-08-12T01:09:38.172Z,17.4
2016-08-12T01:09:48.178Z,18.3
2016-08-12T01:09:58.179Z,18.5
2016-08-12T01:10:08.182Z,18.1
2016-08-12T01:10:18.185Z,17.9
2016-08-12T01:10:28.184Z,18
2016-08-12T01:10:38.189Z,18.2
2016-08-12T01:10:48.192Z,17.9
2016-08-12T01:10:58.200Z,17.8
2016-08-12T01:11:08.201Z,17.6
2016-08-12T01:11:17.473Z,17.9
2016-08-12T01:11:28.204Z,17.8
2016-08-12T01:11:38.209Z,17.7
2016-08-12T01:11:48.216Z,17.7
2016-08-12T01:11:58.223Z,17.7
2016-08-12T01:12:08.221Z,17.6
2016-08-12T01:12:18.223Z,17.4
2016-08-12T01:12:28.230Z,17.6
2016-08-12T01:12:38.231Z,17.8
2016-08-12T01:12:48.232Z,17.5
2016-08-12T01:12:57.504Z,17.4
2016-08-12T01:13:08.248Z,17.9
2016-08-12T01:13:18.248Z,17.3
2016-08-12T01:13:28.248Z,18
2016-08-12T01:13:38.260Z,17.7
2016-08-12T01:13:48.255Z,17.6
2016-08-12T01:13:58.261Z,17.7
2016-08-12T01:14:08.261Z,18.5
2016-08-12T01:14:18.262Z,17.5
2016-08-12T01:14:28.268Z,17.7
2016-08-12T01:14:38.269Z,17.7
2016-08-12T01:14:47.536Z,17.7
2016-08-12T01:14:58.276Z,18
2016-08-12T01:15:08.292Z,18.1
2016-08-12T01:15:18.287Z,17.7
2016-08-12T01:15:28.282Z,18.3
2016-08-12T01:15:38.289Z,17.6
2016-08-12T01:15:48.293Z,18.4
2016-08-12T01:15:57.568Z,17.8
2016-08-12T01:16:06.847Z,17.6
2016-08-12T01:16:18.308Z,17.5
2016-08-12T01:16:28.309Z,18.3
2016-08-12T01:16:37.581Z,17.6
2016-08-12T01:16:48.315Z,17.8
2016-08-12T01:16:58.315Z,17.4
2016-08-12T01:17:08.321Z,17.7
2016-08-12T01:17:18.333Z,18.1
2016-08-12T01:17:28.332Z,17
2016-08-12T01:17:38.332Z,17.8
2016-08-12T01:17:48.340Z,17.7
2016-08-12T01:17:57.609Z,17.9
2016-08-12T01:18:18.343Z,17.2
2016-08-12T01:18:28.349Z,17.9
2016-08-12T01:18:38.354Z,18
2016-08-12T01:18:46.893Z,17.6
2016-08-12T01:18:58.362Z,18.5
2016-08-12T01:19:08.358Z,17.7
2016-08-12T01:19:17.633Z,17.6
2016-08-12T01:19:28.363Z,17.9
2016-08-12T01:19:38.370Z,17.7
2016-08-12T01:19:47.646Z,17.6
2016-08-12T01:19:58.374Z,17.4
2016-08-12T01:20:08.375Z,17.6
2016-08-12T01:20:17.650Z,18.1
2016-08-12T01:20:28.387Z,17.5
2016-08-12T01:20:38.390Z,17.8
2016-08-12T01:20:48.395Z,17.8
2016-08-12T01:20:58.395Z,17.6
2016-08-12T01:21:08.400Z,17.6
2016-08-12T01:21:18.404Z,17.6
2016-08-12T01:21:28.413Z,17.7
2016-08-12T01:21:38.411Z,18.2
2016-08-12T01:21:48.411Z,17.4
2016-08-12T01:21:58.421Z,17.6
2016-08-12T01:22:08.421Z,18
2016-08-12T01:22:18.420Z,17.5
2016-08-12T01:22:28.426Z,17.5
2016-08-12T01:22:38.438Z,17.4
2016-08-12T01:22:48.432Z,17.6
2016-08-12T01:22:58.434Z,17.3
2016-08-12T01:23:08.437Z,17.7
2016-08-12T01:23:18.441Z,17.8
2016-08-12T01:23:28.443Z,17.6
2016-08-12T01:23:38.452Z,17.3
2016-08-12T01:23:48.451Z,17.2
2016-08-12T01:23:58.451Z,17.4
2016-08-12T01:24:08.459Z,17.2
2016-08-12T01:24:17.732Z,17.2
2016-08-12T01:24:28.463Z,17.3
2016-08-12T01:24:37.002Z,17.5
2016-08-12T01:24:47.738Z,17.3
2016-08-12T01:24:58.477Z,17.6
2016-08-12T01:25:08.480Z,17
2016-08-12T01:25:17.744Z,17.3
2016-08-12T01:25:28.482Z,17.6
2016-08-12T01:25:38.490Z,17.1
2016-08-12T01:25:48.497Z,17.8
2016-08-12T01:25:58.499Z,17
2016-08-12T01:26:08.497Z,17.5
2016-08-12T01:26:17.766Z,17.7
2016-08-12T01:26:27.773Z,17.5
2016-08-12T01:26:38.509Z,17.2
2016-08-12T01:26:48.518Z,17.6
2016-08-12T01:26:58.513Z,17.5
2016-08-12T01:27:08.515Z,17.3
2016-08-12T01:27:18.523Z,17.1
2016-08-12T01:27:28.524Z,17.3
2016-08-12T01:27:38.530Z,17
2016-08-12T01:27:48.532Z,17.3
2016-08-12T01:27:58.537Z,17.2
2016-08-12T01:28:08.536Z,17.6
2016-08-12T01:28:18.541Z,16.8
2016-08-12T01:28:28.540Z,17.4
2016-08-12T01:28:38.545Z,17.6
2016-08-12T01:28:47.823Z,17
2016-08-12T01:28:57.818Z,17.3
2016-08-12T01:29:08.557Z,17.8
2016-08-12T01:29:18.560Z,17.3
2016-08-12T01:29:27.839Z,17.6
2016-08-12T01:29:38.573Z,17.1
2016-08-12T01:29:47.848Z,17.4
2016-08-12T01:29:57.852Z,17.1
2016-08-12T01:30:07.844Z,17.4
2016-08-12T01:30:18.582Z,17.3
2016-08-12T01:30:28.583Z,17.5
2016-08-12T01:30:38.591Z,17.2
2016-08-12T01:30:48.591Z,17.2
2016-08-12T01:30:58.596Z,17.8
2016-08-12T01:31:07.873Z,17.1
2016-08-12T01:31:18.608Z,17.2
2016-08-12T01:31:28.602Z,17.4
2016-08-12T01:31:37.877Z,17.4
2016-08-12T01:31:47.872Z,17.7
2016-08-12T01:31:57.888Z,17.9
2016-08-12T01:32:08.623Z,17.6
2016-08-12T01:32:18.619Z,17.3
2016-08-12T01:32:28.622Z,17.7
2016-08-12T01:32:38.629Z,17.7
2016-08-12T01:32:48.633Z,17.2
2016-08-12T01:32:57.901Z,18
2016-08-12T01:33:08.639Z,17.4
2016-08-12T01:33:17.916Z,18
2016-08-12T01:33:28.646Z,17.8
2016-08-12T01:33:48.652Z,17.6
2016-08-12T01:33:58.656Z,17.3
2016-08-12T01:34:08.659Z,17.5
2016-08-12T01:34:18.668Z,17.5
2016-08-12T01:34:27.936Z,17.5
2016-08-12T01:34:38.664Z,17.2
2016-08-12T01:34:48.669Z,17.8
2016-08-12T01:34:57.942Z,17.3
2016-08-12T01:35:08.682Z,17.2
2016-08-12T01:35:18.681Z,17.4
2016-08-12T01:35:27.223Z,17.6
2016-08-12T01:35:37.225Z,17.3
2016-08-12T01:35:48.693Z,17.2
2016-08-12T01:35:58.693Z,17.3
2016-08-12T01:36:08.699Z,17.7
2016-08-12T01:36:18.702Z,17
2016-08-12T01:36:28.702Z,17.2
2016-08-12T01:36:38.712Z,17.3
2016-08-12T01:36:47.983Z,16.9
2016-08-12T01:36:58.719Z,16.9
2016-08-12T01:37:08.725Z,16.7
2016-08-12T01:37:18.718Z,16.9
2016-08-12T01:37:28.726Z,17.2
2016-08-12T01:37:38.725Z,16.9
2016-08-12T01:37:48.732Z,16.9
2016-08-12T01:37:58.732Z,17
2016-08-12T01:38:08.739Z,17.2
2016-08-12T01:38:18.744Z,17.2
2016-08-12T01:38:28.744Z,16.9
2016-08-12T01:38:38.747Z,17.4
2016-08-12T01:38:48.750Z,17.7
2016-08-12T01:38:58.753Z,17.6
2016-08-12T01:39:08.755Z,17.2
2016-08-12T01:39:18.762Z,17.7
2016-08-12T01:39:28.763Z,17
2016-08-12T01:39:38.035Z,17.1
2016-08-12T01:39:48.771Z,17.2
2016-08-12T01:39:58.778Z,17.7
2016-08-12T01:40:08.777Z,17
2016-08-12T01:40:18.783Z,16.7
2016-08-12T01:40:28.782Z,17.7
2016-08-12T01:40:38.789Z,17.6
2016-08-12T01:40:48.071Z,17.4
2016-08-12T01:40:58.063Z,17.2
2016-08-12T01:41:08.793Z,16.9
2016-08-12T01:41:18.802Z,17.5
2016-08-12T01:41:28.803Z,17
2016-08-12T01:41:38.811Z,17.9
2016-08-12T01:41:47.353Z,17.1
2016-08-12T01:41:58.814Z,17
2016-08-12T01:42:08.817Z,17.2
2016-08-12T01:42:18.822Z,17.5
2016-08-12T01:42:28.824Z,18
2016-08-12T01:42:38.844Z,17.4
2016-08-12T01:42:48.828Z,17.3
2016-08-12T01:42:58.830Z,17.9
2016-08-12T01:43:08.893Z,18
2016-08-12T01:43:18.841Z,17.8
2016-08-12T01:43:28.843Z,17
2016-08-12T01:43:38.842Z,18
2016-08-12T01:43:48.853Z,17.3
2016-08-12T01:43:58.123Z,17.2
2016-08-12T01:44:08.854Z,17.4
2016-08-12T01:44:18.860Z,17.1
2016-08-12T01:44:28.869Z,17.3
2016-08-12T01:44:38.863Z,17.3
2016-08-12T01:44:48.149Z,17
2016-08-12T01:44:58.875Z,17.7
2016-08-12T01:45:08.875Z,17.3
2016-08-12T01:45:18.882Z,17.4
2016-08-12T01:45:28.884Z,17.5
2016-08-12T01:45:38.894Z,17.1
2016-08-12T01:45:48.903Z,17.6
2016-08-12T01:45:58.897Z,17.5
2016-08-12T01:46:08.162Z,17.5
2016-08-12T01:46:18.900Z,17.3
2016-08-12T01:46:28.905Z,17.5
2016-08-12T01:46:38.903Z,17.7
2016-08-12T01:46:48.909Z,17.5
2016-08-12T01:46:58.913Z,18.1
2016-08-12T01:47:08.915Z,17.3
2016-08-12T01:47:18.917Z,17.4
2016-08-12T01:47:28.928Z,17.3
2016-08-12T01:47:38.931Z,17.4
2016-08-12T01:47:48.933Z,17.4
2016-08-12T01:47:58.929Z,17.6
2016-08-12T01:48:08.936Z,17.4
2016-08-12T01:48:17.481Z,17.3
2016-08-12T01:48:38.956Z,17.6
2016-08-12T01:48:48.217Z,18.1
2016-08-12T01:48:58.219Z,17.3
2016-08-12T01:49:08.953Z,17.5
2016-08-12T01:49:18.956Z,17.4
2016-08-12T01:49:28.963Z,17.6
2016-08-12T01:49:38.967Z,17.8
2016-08-12T01:49:48.969Z,17.4
2016-08-12T01:49:58.248Z,17.8
2016-08-12T01:50:08.975Z,17.5
2016-08-12T01:50:18.977Z,17.9
2016-08-12T01:50:28.989Z,18.3
2016-08-12T01:50:38.983Z,17.4
2016-08-12T01:50:48.986Z,18
2016-08-12T01:50:58.263Z,17.6
2016-08-12T01:51:08.264Z,17.6
2016-08-12T01:51:18.999Z,17.6
2016-08-12T01:51:28.999Z,17.3
2016-08-12T01:51:39.008Z,17.6
2016-08-12T01:51:49.013Z,17.3
2016-08-12T01:51:59.012Z,18.1
2016-08-12T01:52:08.293Z,17.5
2016-08-12T01:52:19.023Z,17.5
2016-08-12T01:52:29.024Z,17.7
2016-08-12T01:52:39.026Z,18
2016-08-12T01:52:48.298Z,17.5
2016-08-12T01:52:59.028Z,18
2016-08-12T01:53:09.037Z,17.4
2016-08-12T01:53:19.039Z,17.4
2016-08-12T01:53:29.044Z,17.5
2016-08-12T01:53:39.048Z,17.6
2016-08-12T01:53:48.333Z,17.9
2016-08-12T01:53:59.052Z,17.4
2016-08-12T01:54:09.054Z,17.5
2016-08-12T01:54:19.071Z,17.4
2016-08-12T01:54:29.061Z,16.9
2016-08-12T01:54:38.335Z,17.4
2016-08-12T01:54:49.071Z,17.1
2016-08-12T01:54:59.080Z,17
2016-08-12T01:55:09.076Z,17.2
2016-08-12T01:55:19.078Z,16.9
2016-08-12T01:55:29.084Z,17
2016-08-12T01:55:39.091Z,17
2016-08-12T01:55:48.359Z,17.3
2016-08-12T01:55:59.090Z,17.1
2016-08-12T01:56:09.114Z,17.7
2016-08-12T01:56:19.099Z,16.8
2016-08-12T01:56:29.104Z,16.9
2016-08-12T01:56:39.105Z,16.8
2016-08-12T01:56:49.118Z,17.1
2016-08-12T01:56:59.113Z,17.1
2016-08-12T01:57:09.115Z,17
2016-08-12T01:57:18.387Z,17.1
2016-08-12T01:57:29.122Z,17.1
2016-08-12T01:57:38.396Z,17.1
2016-08-12T01:57:49.129Z,16.9
2016-08-12T01:57:59.137Z,17.1
2016-08-12T01:58:09.137Z,16.9
2016-08-12T01:58:19.141Z,17.4
2016-08-12T01:58:29.142Z,17.3
2016-08-12T01:58:39.142Z,17.2
2016-08-12T01:58:49.154Z,16.8
2016-08-12T01:58:59.153Z,17.2
2016-08-12T01:59:09.159Z,17.8
2016-08-12T01:59:19.154Z,17
2016-08-12T01:59:29.156Z,17
2016-08-12T01:59:39.165Z,17
2016-08-12T01:59:49.174Z,17
2016-08-12T01:59:59.174Z,17.2
2016-08-12T02:00:09.176Z,17.1
2016-08-12T02:00:19.179Z,16.9
2016-08-12T02:00:29.180Z,17
2016-08-12T02:00:39.188Z,17.1
2016-08-12T02:00:49.202Z,16.9
2016-08-12T02:00:59.193Z,17.2
2016-08-12T02:01:08.516Z,16.8
2016-08-12T02:01:19.194Z,17.1
2016-08-12T02:01:28.464Z,16.8
2016-08-12T02:01:39.209Z,16.8
2016-08-12T02:01:49.214Z,16.7
2016-08-12T02:01:59.223Z,16.9
2016-08-12T02:02:08.536Z,16.8
2016-08-12T02:02:19.222Z,17.6
2016-08-12T02:02:29.221Z,17.1
2016-08-12T02:02:39.225Z,17.1
2016-08-12T02:02:49.233Z,16.8
2016-08-12T02:02:59.233Z,17.2
2016-08-12T02:03:09.237Z,17
2016-08-12T02:03:19.237Z,17.3
2016-08-12T02:03:49.249Z,17
2016-08-12T02:03:59.254Z,16.9
2016-08-12T02:04:08.530Z,17.4
2016-08-12T02:04:19.259Z,17.5
2016-08-12T02:04:29.261Z,16.6
2016-08-12T02:04:39.263Z,17.1
2016-08-12T02:04:49.266Z,16.7
2016-08-12T02:04:59.273Z,16.9
2016-08-12T02:05:09.280Z,16.7
2016-08-12T02:05:18.546Z,17.1
2016-08-12T02:05:29.277Z,16.8
2016-08-12T02:05:39.292Z,16.7
2016-08-12T02:05:49.287Z,16.9
2016-08-12T02:05:59.294Z,16.7
2016-08-12T02:06:09.293Z,16.9
2016-08-12T02:06:19.299Z,16.8
2016-08-12T02:06:29.302Z,17.1
2016-08-12T02:06:39.308Z,17.3
2016-08-12T02:06:48.583Z,16.9
2016-08-12T02:06:59.312Z,17
2016-08-12T02:07:08.584Z,17.3
2016-08-12T02:07:19.320Z,16.8
2016-08-12T02:07:29.322Z,16.9
2016-08-12T02:07:38.594Z,16.7
2016-08-12T02:07:48.598Z,16.6
2016-08-12T02:07:59.329Z,16.8
2016-08-12T02:08:09.340Z,16.7
2016-08-12T02:08:19.342Z,16.4
2016-08-12T02:08:29.345Z,17.2
2016-08-12T02:08:39.348Z,17.2
2016-08-12T02:08:49.348Z,17.3
2016-08-12T02:08:59.355Z,16.7
2016-08-12T02:09:09.354Z,17
2016-08-12T02:09:19.363Z,17.2
2016-08-12T02:09:29.361Z,16.8
2016-08-12T02:09:39.365Z,16.5
2016-08-12T02:09:49.374Z,16.9
2016-08-12T02:09:59.369Z,17
2016-08-12T02:10:09.379Z,16.7
2016-08-12T02:10:19.379Z,16.8
2016-08-12T02:10:29.392Z,17
2016-08-12T02:10:39.389Z,16.8
2016-08-12T02:10:49.399Z,16.8
2016-08-12T02:10:59.391Z,17
2016-08-12T02:11:09.400Z,16.7
2016-08-12T02:11:19.398Z,17.3
2016-08-12T02:11:29.413Z,16.6
2016-08-12T02:11:39.406Z,17.1
2016-08-12T02:11:49.414Z,16.4
2016-08-12T02:11:59.411Z,16.5
2016-08-12T02:12:09.415Z,16.6
2016-08-12T02:12:19.418Z,17.1
2016-08-12T02:12:28.692Z,16.7
2016-08-12T02:12:39.428Z,16.6
2016-08-12T02:12:49.441Z,16.9
2016-08-12T02:12:59.435Z,17.2
2016-08-12T02:13:09.435Z,16.5
2016-08-12T02:13:19.436Z,16.5
2016-08-12T02:13:29.442Z,16.9
2016-08-12T02:13:39.445Z,16.4
2016-08-12T02:13:49.448Z,16.4
2016-08-12T02:13:59.454Z,16.7
2016-08-12T02:14:09.459Z,16.7
2016-08-12T02:14:19.457Z,16.9
2016-08-12T02:14:29.469Z,16.2
2016-08-12T02:14:39.464Z,16.1
2016-08-12T02:14:49.471Z,16.4
2016-08-12T02:14:59.471Z,16.4
2016-08-12T02:15:09.474Z,16.4
2016-08-12T02:15:19.484Z,16.7
2016-08-12T02:15:29.483Z,16.7
2016-08-12T02:15:39.490Z,16.7
2016-08-12T02:15:49.493Z,16.5
2016-08-12T02:15:58.763Z,16.7
2016-08-12T02:16:09.497Z,17
2016-08-12T02:16:18.771Z,16.9